Weather at Antwerp/Commandant Fourcault Heliport

Public forecast

Using degrees Celsius for public forecast. Weather courtesy of forecast.io.

Closest aviation weather report (METAR) to Antwerp/Commandant Fourcault Heliport

Closest report is Antwerp International Airport (Deurne), 3.6 nm (6.7 km) SE.

2024/03/01 17:50 (retrieved 40 minutes ago)

EBAW 011750Z 15012KT 9999 SCT024 BKN032 09/05 Q0999 NOSIG

Closest aviation forecast (TAF) to Antwerp/Commandant Fourcault Heliport

Forecast is more than 6 hours old.

Closest forecast is Woensdrecht Air Base, 12.8 nm (23.7 km) N.

2024/03/01 10:03 (retrieved 8 hours ago)

TAF EHWO 010923Z 0110/0122 18013G29KT 9999 SCT015 BECMG 0110/0111 SCT025 PROB40 TEMPO 0112/0118 4500 SHRA RA SCT015CB BKN018 BECMG 0115/0117 15008KT BECMG 0120/0122 17012G25KT